Time;durP1;ratioP1;P1;durP2;ratioP2;P2;SDS_P1;SDS_P2;PMS_P1;PMS_P2;Temp;Humidity;BMP_temperature;BMP_pressure;BME280_temperature;BME280_humidity;BME280_pressure;Samples;Min_cycle;Max_cycle;Signal;HPM_P1;HPM_P2
2022/08/29 00:02:10;;;;;;;10.57;4.70;;;;;;;;;;4931937;29;20038;-77
2022/08/29 00:04:36;;;;;;;8.50;4.63;;;;;;;;;;4908183;29;20028;-80
2022/08/29 00:07:02;;;;;;;9.65;4.88;;;;;;;;;;4913285;29;20066;-79
2022/08/29 00:09:28;;;;;;;8.52;4.82;;;;;;;;;;4929061;29;20380;-79
2022/08/29 00:11:55;;;;;;;8.35;5.00;;;;;;;;;;4912864;29;20035;-75
2022/08/29 00:14:21;;;;;;;7.07;4.75;;;;;;;;;;4914116;29;20118;-81
2022/08/29 00:16:48;;;;;;;8.18;5.32;;;;;;;;;;4912350;29;20032;-81
2022/08/29 00:19:14;;;;;;;8.95;4.88;;;;;;;;;;4919850;29;20083;-82
2022/08/29 00:21:42;;;;;;;7.10;4.90;;;;;;;;;;4914490;29;20529;-74
2022/08/29 00:24:08;;;;;;;8.85;5.30;;;;;;;;;;4924251;29;20031;-75
2022/08/29 00:26:34;;;;;;;11.13;4.80;;;;;;;;;;4910939;29;20042;-79
2022/08/29 00:29:01;;;;;;;7.88;4.70;;;;;;;;;;4932558;29;20032;-72
2022/08/29 00:31:28;;;;;;;7.43;4.80;;;;;;;;;;4916300;29;20059;-81
2022/08/29 00:33:56;;;;;;;15.52;5.20;;;;;;;;;;4912985;29;20393;-75
2022/08/29 00:36:22;;;;;;;9.07;5.20;;;;;;;;;;4914402;29;20481;-73
2022/08/29 00:38:48;;;;;;;9.05;5.15;;;;;;;;;;4922450;29;20036;-83
2022/08/29 00:41:15;;;;;;;9.85;5.57;;;;;;;;;;4903703;29;20024;-84
2022/08/29 00:43:41;;;;;;;7.65;5.10;;;;;;;;;;4904147;29;20032;-84
2022/08/29 00:46:10;;;;;;;8.55;5.60;;;;;;;;;;4920750;29;20499;-76
2022/08/29 00:48:37;;;;;;;8.88;5.43;;;;;;;;;;4903674;29;20496;-74
2022/08/29 00:51:06;;;;;;;10.50;5.82;;;;;;;;;;4920924;29;20131;-75
2022/08/29 00:53:39;;;;;;;7.75;5.20;;;;;;;;;;4903938;29;20032;-83
2022/08/29 00:56:05;;;;;;;;;;;;;;;;;;4904803;29;20052;-84
2022/08/29 00:58:35;;;;;;;8.70;5.80;;;;;;;;;;4904284;29;19907;-74
2022/08/29 01:01:01;;;;;;;8.60;5.68;;;;;;;;;;4920659;29;20032;-84
2022/08/29 01:03:30;;;;;;;8.43;4.90;;;;;;;;;;4903576;29;20029;-75
2022/08/29 01:05:57;;;;;;;15.85;5.15;;;;;;;;;;4905105;29;20059;-76
2022/08/29 01:08:23;;;;;;;7.60;5.15;;;;;;;;;;4921362;29;20099;-84
2022/08/29 01:13:36;;;;;;;8.07;4.93;;;;;;;;;;4920493;29;20038;-76
2022/08/29 01:16:05;;;;;;;7.03;4.40;;;;;;;;;;4903272;29;20051;-84
2022/08/29 01:18:32;;;;;;;10.07;4.15;;;;;;;;;;4903211;29;20060;-82
2022/08/29 01:21:05;;;;;;;7.97;4.57;;;;;;;;;;4919976;29;20051;-84
2022/08/29 01:23:34;;;;;;;7.95;4.82;;;;;;;;;;4905153;29;20028;-84
2022/08/29 01:26:01;;;;;;;9.60;4.70;;;;;;;;;;4902875;29;20040;-73
2022/08/29 01:28:32;;;;;;;7.18;4.28;;;;;;;;;;4903369;29;20032;-84
2022/08/29 01:31:01;;;;;;;7.72;4.85;;;;;;;;;;4919900;29;20028;-73
2022/08/29 01:33:34;;;;;;;6.05;4.57;;;;;;;;;;4902961;29;20040;-74
2022/08/29 01:36:00;;;;;;;7.43;4.78;;;;;;;;;;4903314;29;20375;-83
2022/08/29 01:38:26;;;;;;;6.10;4.13;;;;;;;;;;4903469;29;20028;-75
2022/08/29 01:40:57;;;;;;;11.13;4.82;;;;;;;;;;4903130;29;20047;-85
2022/08/29 01:43:23;;;;;;;5.60;3.85;;;;;;;;;;4903437;29;20047;-84
2022/08/29 01:45:50;;;;;;;7.72;4.47;;;;;;;;;;4903189;29;20036;-84
2022/08/29 01:48:16;;;;;;;6.93;4.43;;;;;;;;;;4903085;29;20096;-74
2022/08/29 01:50:43;;;;;;;7.03;3.47;;;;;;;;;;4903213;29;20127;-73
2022/08/29 01:53:09;;;;;;;7.68;4.60;;;;;;;;;;4920202;29;20028;-84
2022/08/29 01:55:36;;;;;;;7.22;4.20;;;;;;;;;;4903519;29;20039;-84
2022/08/29 01:58:03;;;;;;;8.23;4.00;;;;;;;;;;4903150;29;20024;-84
2022/08/29 02:00:29;;;;;;;10.05;3.80;;;;;;;;;;4902662;29;20032;-84
2022/08/29 02:02:59;;;;;;;7.43;3.92;;;;;;;;;;4902987;29;20485;-84
2022/08/29 02:05:25;;;;;;;4.95;3.63;;;;;;;;;;4902909;29;20032;-75
2022/08/29 02:07:51;;;;;;;8.65;4.07;;;;;;;;;;4919763;29;20036;-74
2022/08/29 02:10:17;;;;;;;7.18;4.03;;;;;;;;;;4902581;29;20036;-84
2022/08/29 02:12:43;;;;;;;5.05;3.88;;;;;;;;;;4920053;29;20036;-76
2022/08/29 02:15:10;;;;;;;7.28;3.65;;;;;;;;;;4902484;29;20062;-85
2022/08/29 02:17:37;;;;;;;6.65;3.80;;;;;;;;;;4902833;29;20028;-75
2022/08/29 02:20:06;;;;;;;8.00;4.10;;;;;;;;;;4922199;29;20371;-84
2022/08/29 02:22:33;;;;;;;5.82;3.92;;;;;;;;;;4902521;29;20060;-83
2022/08/29 02:24:59;;;;;;;5.68;3.65;;;;;;;;;;4902664;29;20032;-74
2022/08/29 02:27:25;;;;;;;5.63;3.53;;;;;;;;;;4902609;29;20086;-74
2022/08/29 02:29:51;;;;;;;7.15;3.10;;;;;;;;;;4927730;29;20039;-83
2022/08/29 02:32:18;;;;;;;7.97;3.50;;;;;;;;;;4904226;29;20113;-84
2022/08/29 02:34:45;;;;;;;6.00;3.15;;;;;;;;;;4902771;29;20024;-84
2022/08/29 02:37:11;;;;;;;5.72;2.90;;;;;;;;;;4902834;29;20036;-84
2022/08/29 02:39:37;;;;;;;4.90;3.08;;;;;;;;;;4902365;29;20490;-76
2022/08/29 02:42:04;;;;;;;4.70;3.25;;;;;;;;;;4902034;29;20028;-83
2022/08/29 02:44:30;;;;;;;6.22;3.13;;;;;;;;;;4902062;29;20115;-80
2022/08/29 02:46:57;;;;;;;6.07;3.72;;;;;;;;;;4902584;29;20046;-84
2022/08/29 02:49:23;;;;;;;5.10;3.25;;;;;;;;;;4902530;29;20028;-85
2022/08/29 02:51:49;;;;;;;5.10;3.33;;;;;;;;;;4901929;29;20086;-84
2022/08/29 02:54:15;;;;;;;5.00;3.65;;;;;;;;;;4901900;29;20116;-74
2022/08/29 02:56:42;;;;;;;6.50;3.13;;;;;;;;;;4918600;29;20119;-84
2022/08/29 02:59:08;;;;;;;4.70;3.17;;;;;;;;;;4902637;29;20036;-83
2022/08/29 03:01:37;;;;;;;6.82;3.90;;;;;;;;;;4901480;29;20168;-85
2022/08/29 03:04:03;;;;;;;5.38;3.63;;;;;;;;;;4902330;29;20086;-84
2022/08/29 03:06:30;;;;;;;8.15;3.83;;;;;;;;;;4902169;29;20068;-74
2022/08/29 03:08:56;;;;;;;5.72;3.75;;;;;;;;;;4901472;29;20024;-84
2022/08/29 03:11:22;;;;;;;6.35;3.33;;;;;;;;;;4902593;29;20063;-84
2022/08/29 03:13:48;;;;;;;5.90;3.80;;;;;;;;;;4901505;29;20105;-84
2022/08/29 03:16:15;;;;;;;8.60;4.15;;;;;;;;;;4901458;29;20032;-84
2022/08/29 03:18:41;;;;;;;6.43;4.47;;;;;;;;;;4901238;29;20028;-74
2022/08/29 03:21:15;;;;;;;8.05;3.72;;;;;;;;;;4901091;29;20044;-82
2022/08/29 03:23:42;;;;;;;5.75;4.05;;;;;;;;;;4919491;23;20064;-84
2022/08/29 03:26:08;;;;;;;7.78;4.20;;;;;;;;;;4918403;29;20521;-84
2022/08/29 03:31:00;;;;;;;5.55;3.97;;;;;;;;;;4947580;23;20114;-84
2022/08/29 03:33:26;;;;;;;6.68;4.03;;;;;;;;;;4937146;29;20032;-84
2022/08/29 03:35:52;;;;;;;5.95;3.97;;;;;;;;;;4936970;29;20028;-84
2022/08/29 03:38:19;;;;;;;7.55;3.90;;;;;;;;;;4937235;29;20548;-84
2022/08/29 03:40:45;;;;;;;7.13;4.07;;;;;;;;;;4936737;29;20042;-84
2022/08/29 03:43:12;;;;;;;6.43;4.35;;;;;;;;;;4920339;29;20031;-85
2022/08/29 03:45:39;;;;;;;7.32;3.95;;;;;;;;;;4920370;29;20141;-84
2022/08/29 03:48:05;;;;;;;7.68;4.10;;;;;;;;;;4936858;29;20043;-85
2022/08/29 03:50:31;;;;;;;6.20;4.18;;;;;;;;;;4937072;29;20028;-84
2022/08/29 03:52:58;;;;;;;6.78;4.00;;;;;;;;;;4936753;29;20038;-84
2022/08/29 03:55:24;;;;;;;6.55;4.28;;;;;;;;;;4937157;29;20051;-84
2022/08/29 03:57:50;;;;;;;6.65;3.90;;;;;;;;;;4919520;29;20056;-84
2022/08/29 04:00:18;;;;;;;7.00;4.30;;;;;;;;;;4920540;29;20031;-84
2022/08/29 04:02:45;;;;;;;6.70;3.67;;;;;;;;;;4919370;29;20118;-84
2022/08/29 04:05:16;;;;;;;7.95;4.40;;;;;;;;;;4920226;29;20028;-84
2022/08/29 04:07:45;;;;;;;7.00;4.30;;;;;;;;;;4921238;29;20417;-84
2022/08/29 04:10:14;;;;;;;6.57;3.88;;;;;;;;;;4937817;29;20043;-84
2022/08/29 04:12:40;;;;;;;8.50;4.45;;;;;;;;;;4921128;29;20027;-84
2022/08/29 04:15:07;;;;;;;7.00;4.18;;;;;;;;;;4920224;29;20113;-75
2022/08/29 04:17:34;;;;;;;6.82;4.60;;;;;;;;;;4919592;29;20032;-85
2022/08/29 04:20:00;;;;;;;5.95;3.88;;;;;;;;;;4936298;29;20020;-84
2022/08/29 04:22:27;;;;;;;7.32;3.88;;;;;;;;;;4920351;29;20396;-85
2022/08/29 04:24:53;;;;;;;6.90;4.25;;;;;;;;;;4920405;29;20031;-84
2022/08/29 04:27:19;;;;;;;8.85;4.78;;;;;;;;;;4919938;29;20036;-84
2022/08/29 04:29:47;;;;;;;7.80;4.40;;;;;;;;;;4919183;29;20043;-84
2022/08/29 04:32:13;;;;;;;5.97;3.72;;;;;;;;;;4919472;29;20038;-84
2022/08/29 04:34:40;;;;;;;9.38;3.75;;;;;;;;;;4919129;29;20479;-86
2022/08/29 04:37:06;;;;;;;7.00;3.75;;;;;;;;;;4936334;29;20028;-83
2022/08/29 04:39:32;;;;;;;8.55;4.18;;;;;;;;;;4919285;29;20024;-84
2022/08/29 04:41:58;;;;;;;6.20;3.95;;;;;;;;;;4937199;29;20031;-85
2022/08/29 04:44:24;;;;;;;5.72;3.78;;;;;;;;;;4936748;29;20019;-85
2022/08/29 04:46:51;;;;;;;6.55;3.65;;;;;;;;;;4919594;29;20485;-85
2022/08/29 04:49:17;;;;;;;8.23;3.90;;;;;;;;;;4936440;29;20024;-84
2022/08/29 04:51:43;;;;;;;5.88;3.35;;;;;;;;;;4936946;29;20035;-85
2022/08/29 04:54:09;;;;;;;6.10;3.40;;;;;;;;;;4937254;29;20076;-85
2022/08/29 04:56:37;;;;;;;6.60;3.72;;;;;;;;;;4939387;29;20036;-85
2022/08/29 04:59:03;;;;;;;9.57;3.78;;;;;;;;;;4923574;29;20028;-84
2022/08/29 05:01:29;;;;;;;4.90;3.13;;;;;;;;;;4923040;29;20032;-84
2022/08/29 05:03:56;;;;;;;5.18;3.60;;;;;;;;;;4922990;29;20027;-85
2022/08/29 05:06:23;;;;;;;9.18;3.40;;;;;;;;;;4922975;29;20028;-85
2022/08/29 05:08:49;;;;;;;7.03;3.30;;;;;;;;;;4941319;29;20046;-84
2022/08/29 05:11:18;;;;;;;7.60;3.42;;;;;;;;;;4940093;29;20036;-85
2022/08/29 05:13:45;;;;;;;5.95;3.47;;;;;;;;;;4922791;29;20031;-85
2022/08/29 05:16:12;;;;;;;6.57;3.53;;;;;;;;;;4923122;29;20031;-85
2022/08/29 05:18:38;;;;;;;5.60;2.92;;;;;;;;;;4939445;29;20036;-85
2022/08/29 05:21:05;;;;;;;4.70;3.15;;;;;;;;;;4922449;29;20055;-84
2022/08/29 05:23:32;;;;;;;5.03;3.28;;;;;;;;;;4922734;29;20038;-86
2022/08/29 05:25:59;;;;;;;6.05;2.80;;;;;;;;;;4922148;29;20568;-83
2022/08/29 05:28:28;;;;;;;5.05;2.83;;;;;;;;;;4922202;29;20031;-85
2022/08/29 05:30:54;;;;;;;4.40;2.70;;;;;;;;;;4922282;29;20083;-84
2022/08/29 05:33:21;;;;;;;5.70;2.72;;;;;;;;;;4922146;29;20440;-85
2022/08/29 05:35:47;;;;;;;5.75;2.45;;;;;;;;;;4941371;29;20485;-85
2022/08/29 05:38:13;;;;;;;5.13;2.35;;;;;;;;;;4922483;29;20110;-85
2022/08/29 05:40:40;;;;;;;4.57;2.08;;;;;;;;;;4926505;29;20028;-84
2022/08/29 05:43:10;;;;;;;3.78;2.33;;;;;;;;;;4909114;29;20126;-74
2022/08/29 05:45:37;;;;;;;5.93;1.55;;;;;;;;;;4923512;29;20035;-75
2022/08/29 05:48:07;;;;;;;3.53;1.35;;;;;;;;;;4920716;29;20032;-78
2022/08/29 05:50:37;;;;;;;3.90;1.63;;;;;;;;;;4904273;29;20063;-85
2022/08/29 05:53:03;;;;;;;3.38;1.38;;;;;;;;;;4910796;29;20032;-84
2022/08/29 05:55:29;;;;;;;2.65;1.58;;;;;;;;;;4909360;29;20036;-83
2022/08/29 05:58:05;;;;;;;2.55;1.52;;;;;;;;;;4909940;29;20032;-86
2022/08/29 06:00:31;;;;;;;3.40;1.48;;;;;;;;;;4906400;29;20127;-87
2022/08/29 06:02:57;;;;;;;5.45;1.98;;;;;;;;;;4905051;29;20035;-83
2022/08/29 06:05:29;;;;;;;4.38;2.00;;;;;;;;;;4902892;29;20119;-84
2022/08/29 06:07:55;;;;;;;3.50;1.92;;;;;;;;;;4902538;29;20032;-77
2022/08/29 06:10:22;;;;;;;3.42;1.60;;;;;;;;;;4902464;29;20040;-85
2022/08/29 06:12:48;;;;;;;5.22;1.80;;;;;;;;;;4902592;29;20025;-73
2022/08/29 06:15:14;;;;;;;4.07;1.23;;;;;;;;;;4902196;29;20035;-85
2022/08/29 06:17:40;;;;;;;3.35;1.50;;;;;;;;;;4909418;29;20437;-76
2022/08/29 06:20:08;;;;;;;4.47;1.70;;;;;;;;;;4921036;29;20122;-81
2022/08/29 06:22:34;;;;;;;5.65;1.42;;;;;;;;;;4916566;29;20028;-73
2022/08/29 06:25:01;;;;;;;3.10;1.45;;;;;;;;;;4918692;29;20031;-85
2022/08/29 06:27:27;;;;;;;9.00;1.90;;;;;;;;;;4918113;29;20040;-82
2022/08/29 06:29:53;;;;;;;4.63;1.90;;;;;;;;;;4918414;29;20048;-76
2022/08/29 06:32:19;;;;;;;2.92;1.90;;;;;;;;;;4902688;29;20036;-84
2022/08/29 06:34:46;;;;;;;4.30;1.75;;;;;;;;;;4902705;29;20063;-83
2022/08/29 06:37:12;;;;;;;5.70;1.70;;;;;;;;;;4902146;29;20032;-78
2022/08/29 06:39:38;;;;;;;2.72;1.42;;;;;;;;;;4902025;29;20028;-83
2022/08/29 06:42:04;;;;;;;4.50;1.80;;;;;;;;;;4902555;29;20470;-85
2022/08/29 06:44:31;;;;;;;3.20;1.70;;;;;;;;;;4905811;29;20039;-86
2022/08/29 06:46:57;;;;;;;2.72;1.58;;;;;;;;;;4919186;29;20036;-83
2022/08/29 06:49:24;;;;;;;4.70;1.58;;;;;;;;;;4907263;29;20844;-74
2022/08/29 06:51:51;;;;;;;3.15;1.63;;;;;;;;;;4920278;29;20125;-85
2022/08/29 06:54:18;;;;;;;4.05;1.67;;;;;;;;;;4920143;29;20024;-73
2022/08/29 06:56:44;;;;;;;3.78;1.55;;;;;;;;;;4920352;29;20064;-83
2022/08/29 06:59:11;;;;;;;4.60;1.55;;;;;;;;;;4916878;29;20031;-83
2022/08/29 07:01:39;;;;;;;5.20;1.70;;;;;;;;;;4920800;29;20032;-83
2022/08/29 07:04:06;;;;;;;9.68;1.90;;;;;;;;;;4928883;29;20020;-79
2022/08/29 07:06:32;;;;;;;4.53;1.48;;;;;;;;;;4914117;29;20032;-75
2022/08/29 07:08:58;;;;;;;5.32;1.90;;;;;;;;;;4920089;29;20032;-75
2022/08/29 07:11:25;;;;;;;2.85;1.67;;;;;;;;;;4919429;29;20039;-82
2022/08/29 07:13:52;;;;;;;4.05;1.90;;;;;;;;;;4936917;29;20111;-82
2022/08/29 07:16:18;;;;;;;3.45;1.70;;;;;;;;;;4920462;29;20034;-86
2022/08/29 07:18:45;;;;;;;3.30;1.73;;;;;;;;;;4920282;29;20031;-85
2022/08/29 07:21:12;;;;;;;3.83;1.80;;;;;;;;;;4916816;29;20039;-74
2022/08/29 07:23:41;;;;;;;4.07;1.85;;;;;;;;;;4906122;29;20020;-85
2022/08/29 07:26:08;;;;;;;5.80;1.77;;;;;;;;;;4900826;29;20520;-75
2022/08/29 07:28:34;;;;;;;4.47;1.75;;;;;;;;;;4900968;29;20032;-84
2022/08/29 07:31:01;;;;;;;7.22;2.10;;;;;;;;;;4900608;29;20059;-82
2022/08/29 07:33:27;;;;;;;4.68;1.80;;;;;;;;;;4900752;29;20035;-82
2022/08/29 07:35:53;;;;;;;3.85;1.88;;;;;;;;;;4900753;29;20028;-84
2022/08/29 07:38:20;;;;;;;2.88;1.70;;;;;;;;;;4904053;29;20087;-74
2022/08/29 07:40:46;;;;;;;4.43;2.13;;;;;;;;;;4925368;29;20043;-74
2022/08/29 07:43:12;;;;;;;4.18;1.80;;;;;;;;;;4924900;29;20070;-82
2022/08/29 07:45:39;;;;;;;2.70;1.40;;;;;;;;;;4908060;29;20103;-73
2022/08/29 07:48:05;;;;;;;3.72;1.80;;;;;;;;;;4910066;29;20028;-74
2022/08/29 07:50:32;;;;;;;4.10;1.70;;;;;;;;;;4927376;29;20056;-75
2022/08/29 07:52:58;;;;;;;2.65;1.55;;;;;;;;;;4908688;29;20055;-79
2022/08/29 07:55:25;;;;;;;2.97;1.50;;;;;;;;;;4917201;29;20035;-81
2022/08/29 07:57:52;;;;;;;7.63;1.50;;;;;;;;;;4916858;29;20024;-79
2022/08/29 08:00:19;;;;;;;4.07;1.80;;;;;;;;;;4900258;29;20032;-80
2022/08/29 08:02:46;;;;;;;5.55;1.65;;;;;;;;;;4906781;29;20031;-82
2022/08/29 08:05:13;;;;;;;5.72;1.92;;;;;;;;;;4919150;29;20059;-80
2022/08/29 08:07:39;;;;;;;3.58;1.50;;;;;;;;;;4936130;29;20031;-81
2022/08/29 08:10:05;;;;;;;4.10;1.38;;;;;;;;;;4936094;29;20024;-83
2022/08/29 08:12:31;;;;;;;3.33;1.50;;;;;;;;;;4918484;29;20047;-74
2022/08/29 08:14:57;;;;;;;3.67;1.70;;;;;;;;;;4936290;29;20056;-73
2022/08/29 08:17:24;;;;;;;4.80;1.55;;;;;;;;;;4935673;29;20027;-80
2022/08/29 08:19:50;;;;;;;5.03;1.30;;;;;;;;;;4936461;29;20028;-85
2022/08/29 08:22:16;;;;;;;2.58;1.27;;;;;;;;;;4919303;29;20043;-86
2022/08/29 08:24:43;;;;;;;2.85;1.33;;;;;;;;;;4919425;29;20038;-86
2022/08/29 08:27:10;;;;;;;3.67;1.52;;;;;;;;;;4919514;29;20123;-86
2022/08/29 08:29:36;;;;;;;2.25;1.27;;;;;;;;;;4911783;29;20064;-87
2022/08/29 08:32:02;;;;;;;5.97;1.42;;;;;;;;;;4903736;29;20409;-86
2022/08/29 08:34:29;;;;;;;5.60;1.58;;;;;;;;;;4904637;29;20059;-87
2022/08/29 08:36:55;;;;;;;2.65;1.30;;;;;;;;;;4904490;29;20016;-86
2022/08/29 08:39:21;;;;;;;4.28;1.73;;;;;;;;;;4904365;29;20028;-86
2022/08/29 08:42:02;;;;;;;3.40;1.30;;;;;;;;;;4904210;29;20032;-86
2022/08/29 08:44:38;;;;;;;3.33;1.45;;;;;;;;;;4906045;29;20042;-87
2022/08/29 08:47:06;;;;;;;6.25;1.75;;;;;;;;;;4903989;29;20040;-86
2022/08/29 08:50:10;;;;;;;3.40;1.50;;;;;;;;;;4921177;29;20478;-87
2022/08/29 08:52:45;;;;;;;3.05;1.30;;;;;;;;;;4863155;29;20487;-86
2022/08/29 08:55:41;;;;;;;3.50;1.30;;;;;;;;;;4912114;29;20040;-75
2022/08/29 08:58:26;;;;;;;2.40;1.55;;;;;;;;;;4896139;29;20032;-85
2022/08/29 09:00:57;;;;;;;5.10;1.30;;;;;;;;;;4904488;29;20028;-86
2022/08/29 09:03:34;;;;;;;3.22;1.33;;;;;;;;;;4904297;29;20039;-87
2022/08/29 09:06:00;;;;;;;3.40;1.50;;;;;;;;;;4903867;29;20051;-86
2022/08/29 09:08:45;;;;;;;2.67;1.52;;;;;;;;;;4903399;29;20036;-86
2022/08/29 09:11:11;;;;;;;2.88;1.50;;;;;;;;;;4904252;29;20115;-86
2022/08/29 09:13:56;;;;;;;4.57;1.75;;;;;;;;;;4903388;29;20055;-85
2022/08/29 09:16:43;;;;;;;6.05;1.50;;;;;;;;;;4903338;29;20024;-86
2022/08/29 09:19:14;;;;;;;3.72;1.55;;;;;;;;;;4903681;29;20028;-86
2022/08/29 09:21:40;;;;;;;;;;;;;;;;;;4903699;29;20389;-75
2022/08/29 09:24:07;;;;;;;2.58;1.40;;;;;;;;;;4903773;29;19911;-86
2022/08/29 09:26:34;;;;;;;3.10;1.25;;;;;;;;;;4903631;29;20036;-86
2022/08/29 09:29:00;;;;;;;3.10;1.27;;;;;;;;;;4906360;29;20477;-86
2022/08/29 09:31:31;;;;;;;4.75;1.75;;;;;;;;;;4922666;29;20043;-86
2022/08/29 09:33:57;;;;;;;;;;;;;;;;;;4922699;29;20024;-86
2022/08/29 09:36:40;;;;;;;2.15;1.33;;;;;;;;;;4923039;29;19963;-87
2022/08/29 09:39:15;;;;;;;3.25;1.75;;;;;;;;;;4926739;29;20504;-87
2022/08/29 09:41:42;;;;;;;4.35;1.58;;;;;;;;;;4922166;29;20032;-87
2022/08/29 09:44:12;;;;;;;3.55;1.77;;;;;;;;;;4921946;29;20039;-86
2022/08/29 09:46:38;;;;;;;1.88;1.10;;;;;;;;;;4921584;29;20511;-86
2022/08/29 09:49:04;;;;;;;4.47;1.30;;;;;;;;;;4922196;29;20028;-86
2022/08/29 09:51:35;;;;;;;2.78;1.40;;;;;;;;;;4922080;29;20389;-87
2022/08/29 09:54:12;;;;;;;2.58;1.30;;;;;;;;;;4939334;29;20047;-86
2022/08/29 09:56:39;;;;;;;2.97;1.10;;;;;;;;;;4921859;29;20123;-81
2022/08/29 09:59:24;;;;;;;2.65;1.20;;;;;;;;;;4921377;29;20028;-86
2022/08/29 10:02:07;;;;;;;5.13;1.30;;;;;;;;;;4921710;29;20500;-78
2022/08/29 10:04:37;;;;;;;3.08;1.33;;;;;;;;;;4939911;29;20030;-86
2022/08/29 10:07:12;;;;;;;2.63;1.20;;;;;;;;;;4921333;29;20040;-86
2022/08/29 10:09:38;;;;;;;2.65;1.30;;;;;;;;;;4939371;29;20020;-87
2022/08/29 10:12:08;;;;;;;5.20;1.50;;;;;;;;;;4938698;29;20400;-86
2022/08/29 10:14:43;;;;;;;3.72;1.50;;;;;;;;;;4921194;29;20032;-86
2022/08/29 10:20:11;;;;;;;4.63;1.25;;;;;;;;;;4938506;29;20078;-86
2022/08/29 10:22:37;;;;;;;2.63;1.20;;;;;;;;;;4921248;29;20032;-85
2022/08/29 10:25:17;;;;;;;2.22;1.17;;;;;;;;;;4921372;29;20079;-86
2022/08/29 10:27:49;;;;;;;2.47;0.90;;;;;;;;;;4920961;29;20046;-75
2022/08/29 10:30:35;;;;;;;2.30;1.00;;;;;;;;;;4921337;29;20044;-86
2022/08/29 10:33:03;;;;;;;1.90;1.08;;;;;;;;;;4921124;29;20028;-86
2022/08/29 10:35:36;;;;;;;2.60;1.30;;;;;;;;;;4922277;29;20047;-86
2022/08/29 10:38:15;;;;;;;2.88;1.30;;;;;;;;;;4921394;29;20023;-86
2022/08/29 10:40:48;;;;;;;2.25;1.00;;;;;;;;;;4921397;29;20035;-86
2022/08/29 10:43:15;;;;;;;3.45;1.40;;;;;;;;;;4921309;29;20170;-85
2022/08/29 10:45:56;;;;;;;2.97;0.90;;;;;;;;;;4920819;29;20028;-86
2022/08/29 10:48:30;;;;;;;4.55;1.00;;;;;;;;;;4920674;29;20039;-86
2022/08/29 10:51:02;;;;;;;2.67;0.80;;;;;;;;;;4920869;29;20070;-86
2022/08/29 10:53:38;;;;;;;2.75;1.08;;;;;;;;;;4920483;29;20051;-86
2022/08/29 10:56:10;;;;;;;3.38;1.02;;;;;;;;;;4937898;29;20085;-86
2022/08/29 10:59:17;;;;;;;1.95;1.00;;;;;;;;;;4938511;29;20036;-86
2022/08/29 11:01:43;;;;;;;2.45;0.77;;;;;;;;;;4864235;29;20028;-85
2022/08/29 11:04:21;;;;;;;2.40;1.10;;;;;;;;;;4864234;29;20040;-85
2022/08/29 11:07:07;;;;;;;4.45;1.10;;;;;;;;;;4896603;29;20043;-85
2022/08/29 11:09:35;;;;;;;2.30;1.17;;;;;;;;;;4927269;29;20035;-85
2022/08/29 11:12:18;;;;;;;2.25;0.95;;;;;;;;;;4920603;29;20481;-85
2022/08/29 11:14:51;;;;;;;4.85;1.08;;;;;;;;;;4921402;29;20354;-75
2022/08/29 11:17:18;;;;;;;2.03;1.13;;;;;;;;;;4937126;29;20059;-85
2022/08/29 11:19:54;;;;;;;3.08;1.10;;;;;;;;;;4917692;29;20392;-84
2022/08/29 11:22:21;;;;;;;4.85;1.58;;;;;;;;;;4912717;29;20030;-83
2022/08/29 11:24:55;;;;;;;1.98;1.25;;;;;;;;;;4916693;29;20167;-74
2022/08/29 11:27:27;;;;;;;3.35;1.33;;;;;;;;;;4936969;29;20445;-74
2022/08/29 11:30:01;;;;;;;10.88;1.55;;;;;;;;;;4904247;29;20049;-84
2022/08/29 11:32:46;;;;;;;2.85;1.25;;;;;;;;;;4936948;29;20039;-85
2022/08/29 11:35:21;;;;;;;2.55;1.20;;;;;;;;;;4919810;29;20500;-82
2022/08/29 11:38:06;;;;;;;4.80;1.30;;;;;;;;;;4919859;29;20016;-77
2022/08/29 11:40:57;;;;;;;2.40;1.13;;;;;;;;;;4920102;29;20034;-79
2022/08/29 11:43:25;;;;;;;3.78;1.42;;;;;;;;;;4910758;29;20027;-85
2022/08/29 11:46:00;;;;;;;4.90;1.55;;;;;;;;;;4933233;29;20441;-86
2022/08/29 11:48:38;;;;;;;3.28;1.60;;;;;;;;;;4919424;29;20043;-74
2022/08/29 11:51:24;;;;;;;3.47;1.50;;;;;;;;;;4936123;29;20059;-76
2022/08/29 11:53:51;;;;;;;3.38;1.70;;;;;;;;;;4921552;29;20035;-83
2022/08/29 11:56:22;;;;;;;4.85;1.80;;;;;;;;;;4903864;29;20027;-80
2022/08/29 11:58:49;;;;;;;2.38;1.58;;;;;;;;;;4918831;29;20440;-75
2022/08/29 12:01:24;;;;;;;3.35;1.83;;;;;;;;;;4918801;29;20027;-75
2022/08/29 12:03:52;;;;;;;4.50;1.80;;;;;;;;;;4935879;29;20103;-74
2022/08/29 12:06:23;;;;;;;3.50;1.80;;;;;;;;;;4921107;29;20024;-75
2022/08/29 12:09:00;;;;;;;3.53;1.58;;;;;;;;;;4928490;29;20083;-74
2022/08/29 12:11:44;;;;;;;3.28;1.48;;;;;;;;;;4929885;29;20028;-75
2022/08/29 12:14:28;;;;;;;6.70;1.70;;;;;;;;;;4903256;29;20415;-76
2022/08/29 12:16:54;;;;;;;4.13;1.80;;;;;;;;;;4910912;29;20028;-75
2022/08/29 12:19:41;;;;;;;3.05;1.85;;;;;;;;;;4908532;29;20393;-77
2022/08/29 12:22:07;;;;;;;3.63;1.60;;;;;;;;;;4902069;29;20095;-74
2022/08/29 12:24:41;;;;;;;5.07;1.65;;;;;;;;;;4918422;29;20023;-74
2022/08/29 12:27:24;;;;;;;2.95;1.63;;;;;;;;;;4925922;29;20047;-75
2022/08/29 12:29:50;;;;;;;;;;;;;;;;;;4915491;29;20051;-74
2022/08/29 12:32:34;;;;;;;4.43;1.80;;;;;;;;;;4920063;29;19961;-74
2022/08/29 12:35:15;;;;;;;3.70;1.67;;;;;;;;;;4909621;29;20028;-77
2022/08/29 12:37:56;;;;;;;3.42;1.77;;;;;;;;;;4925654;29;20040;-75
2022/08/29 12:40:22;;;;;;;3.88;1.70;;;;;;;;;;4918656;29;20036;-73
2022/08/29 12:43:07;;;;;;;3.55;1.73;;;;;;;;;;4906045;29;20027;-75
2022/08/29 12:45:34;;;;;;;3.90;1.80;;;;;;;;;;4912089;29;20107;-75
2022/08/29 12:48:05;;;;;;;5.70;1.67;;;;;;;;;;4934062;29;20039;-76
2022/08/29 12:50:36;;;;;;;3.85;1.70;;;;;;;;;;4918427;29;20024;-74
2022/08/29 12:53:22;;;;;;;6.07;1.92;;;;;;;;;;4918465;29;20028;-75
2022/08/29 12:55:50;;;;;;;3.92;1.58;;;;;;;;;;4920436;29;20046;-75
2022/08/29 12:58:30;;;;;;;3.25;1.80;;;;;;;;;;4915120;29;20025;-75
2022/08/29 13:00:56;;;;;;;4.40;1.75;;;;;;;;;;4921570;29;20038;-76
2022/08/29 13:03:23;;;;;;;2.80;1.63;;;;;;;;;;4918660;29;20040;-73
2022/08/29 13:05:49;;;;;;;2.50;1.42;;;;;;;;;;4915027;29;20059;-75
2022/08/29 13:08:30;;;;;;;3.20;1.40;;;;;;;;;;4918369;29;20061;-75
2022/08/29 13:10:59;;;;;;;3.35;1.30;;;;;;;;;;4918404;29;20042;-75
2022/08/29 13:13:25;;;;;;;6.53;1.63;;;;;;;;;;4918326;29;20023;-75
2022/08/29 13:15:53;;;;;;;2.88;1.42;;;;;;;;;;4918107;29;20123;-75
2022/08/29 13:18:20;;;;;;;4.90;1.70;;;;;;;;;;4905193;29;20023;-78
2022/08/29 13:20:49;;;;;;;5.00;1.35;;;;;;;;;;4931566;29;20028;-76
2022/08/29 13:23:21;;;;;;;3.33;1.77;;;;;;;;;;4912964;29;20023;-75
2022/08/29 13:25:49;;;;;;;3.42;1.58;;;;;;;;;;4933034;29;20039;-75
2022/08/29 13:28:25;;;;;;;3.00;1.52;;;;;;;;;;4916277;29;20024;-77
2022/08/29 13:31:10;;;;;;;4.43;1.77;;;;;;;;;;4921453;29;20059;-76
2022/08/29 13:33:46;;;;;;;5.18;1.77;;;;;;;;;;4912268;29;20039;-75
2022/08/29 13:36:27;;;;;;;4.35;2.20;;;;;;;;;;4903078;29;20028;-75
2022/08/29 13:39:12;;;;;;;5.45;1.77;;;;;;;;;;4902894;29;20028;-75
2022/08/29 13:41:38;;;;;;;2.55;1.52;;;;;;;;;;4921707;29;20032;-73
2022/08/29 13:44:04;;;;;;;4.57;1.75;;;;;;;;;;4934570;29;20031;-77
2022/08/29 13:46:30;;;;;;;3.97;1.60;;;;;;;;;;4917837;29;20040;-77
2022/08/29 13:48:58;;;;;;;4.03;1.63;;;;;;;;;;4938725;29;20028;-78
2022/08/29 13:51:24;;;;;;;3.70;1.77;;;;;;;;;;4921740;29;20043;-86
2022/08/29 13:53:53;;;;;;;2.50;1.58;;;;;;;;;;4921767;29;20020;-75
2022/08/29 13:56:27;;;;;;;2.42;1.38;;;;;;;;;;4909902;29;20114;-73
2022/08/29 13:58:55;;;;;;;2.78;1.50;;;;;;;;;;4934085;29;20059;-76
2022/08/29 14:01:22;;;;;;;3.63;1.60;;;;;;;;;;4921101;29;20028;-78
2022/08/29 14:03:49;;;;;;;2.50;1.70;;;;;;;;;;4921376;29;20028;-81
2022/08/29 14:06:19;;;;;;;4.65;1.95;;;;;;;;;;4920989;29;20446;-79
2022/08/29 14:08:45;;;;;;;2.85;1.65;;;;;;;;;;4920514;29;20130;-76
2022/08/29 14:11:11;;;;;;;8.15;1.92;;;;;;;;;;4921187;29;20034;-80
2022/08/29 14:13:38;;;;;;;4.60;2.03;;;;;;;;;;4938335;29;20043;-75
2022/08/29 14:16:04;;;;;;;10.45;3.28;;;;;;;;;;4938787;29;20474;-75
2022/08/29 14:18:30;;;;;;;3.45;1.38;;;;;;;;;;4921950;29;20125;-83
2022/08/29 14:20:56;;;;;;;3.45;1.60;;;;;;;;;;4921118;29;20039;-83
2022/08/29 14:23:22;;;;;;;4.28;1.67;;;;;;;;;;4921207;29;20031;-75
2022/08/29 14:25:48;;;;;;;5.00;1.60;;;;;;;;;;4918621;29;20032;-80
2022/08/29 14:28:15;;;;;;;4.63;1.83;;;;;;;;;;4920496;29;20034;-76
2022/08/29 14:30:41;;;;;;;3.45;2.13;;;;;;;;;;4937393;29;20410;-81
2022/08/29 14:33:07;;;;;;;4.00;1.90;;;;;;;;;;4920587;29;20047;-78
2022/08/29 14:35:33;;;;;;;4.20;1.70;;;;;;;;;;4937572;29;20030;-77
2022/08/29 14:38:00;;;;;;;3.38;1.85;;;;;;;;;;4920603;29;20027;-83
2022/08/29 14:40:27;;;;;;;3.22;1.83;;;;;;;;;;4920541;29;20036;-76
2022/08/29 14:42:53;;;;;;;5.43;1.80;;;;;;;;;;4920742;29;20028;-74
2022/08/29 14:45:19;;;;;;;3.15;1.83;;;;;;;;;;4920252;29;20035;-79
2022/08/29 14:47:46;;;;;;;4.68;1.90;;;;;;;;;;4937479;29;20462;-79
2022/08/29 14:50:13;;;;;;;2.88;1.67;;;;;;;;;;4920545;29;20115;-79
2022/08/29 14:52:44;;;;;;;4.45;1.90;;;;;;;;;;4916114;29;20032;-77
2022/08/29 14:55:11;;;;;;;3.90;1.90;;;;;;;;;;4936455;29;20418;-74
2022/08/29 14:57:37;;;;;;;5.13;1.90;;;;;;;;;;4920292;29;20480;-76
2022/08/29 15:00:12;;;;;;;4.20;1.75;;;;;;;;;;4920420;29;20569;-76
2022/08/29 15:02:39;;;;;;;4.03;1.45;;;;;;;;;;4938373;29;20400;-76
2022/08/29 15:05:05;;;;;;;3.92;1.80;;;;;;;;;;4920313;29;20118;-74